Terminal Aerodrome Forecast
Issued by NWS

Home | Current Version | Previous Version | Text Only | Print | Product List | Glossary On
Versions: 1 2 3 4 5 6 7 8 9 10 11 12 13 14 15 16 17 18 19 20 21 22 23 24 25 26 27 28 29 30
000
FTUS46 KMTR 031100
TAFSFO
TAF
KSFO 031131Z 0312/0418 28003KT P6SM SKC
     FM032000 31006KT P6SM SKC
     FM032300 29015KT P6SM FEW200
     FM040300 28011KT P6SM FEW200
     FM040700 27004KT P6SM FEW200=

USA.gov is the U.S. government's official web portal to all federal, state and local government web resources and services.